sensor_id;sensor_type;location;lat;lon;timestamp;P1;durP1;ratioP1;P2;durP2;ratioP2
64052;SDS011;50299;49.524;8.536;2023-06-10T00:00:43;8.75;;;8.00;;
64052;SDS011;50299;49.524;8.536;2023-06-10T00:03:10;7.85;;;7.22;;
64052;SDS011;50299;49.524;8.536;2023-06-10T00:05:37;7.80;;;7.18;;
64052;SDS011;50299;49.524;8.536;2023-06-10T00:08:05;8.15;;;7.40;;
64052;SDS011;50299;49.524;8.536;2023-06-10T00:10:35;8.77;;;7.97;;
64052;SDS011;50299;49.524;8.536;2023-06-10T00:13:03;8.43;;;7.68;;
64052;SDS011;50299;49.524;8.536;2023-06-10T00:15:31;8.98;;;8.15;;
64052;SDS011;50299;49.524;8.536;2023-06-10T00:17:57;8.95;;;8.25;;
64052;SDS011;50299;49.524;8.536;2023-06-10T00:20:24;9.68;;;8.80;;
64052;SDS011;50299;49.524;8.536;2023-06-10T00:22:52;9.57;;;8.57;;
64052;SDS011;50299;49.524;8.536;2023-06-10T00:25:18;9.38;;;8.60;;
64052;SDS011;50299;49.524;8.536;2023-06-10T00:27:45;9.30;;;8.52;;
64052;SDS011;50299;49.524;8.536;2023-06-10T00:30:12;9.63;;;8.90;;
64052;SDS011;50299;49.524;8.536;2023-06-10T00:32:39;8.50;;;7.80;;
64052;SDS011;50299;49.524;8.536;2023-06-10T00:35:06;8.68;;;7.97;;
64052;SDS011;50299;49.524;8.536;2023-06-10T00:37:36;9.25;;;8.38;;
64052;SDS011;50299;49.524;8.536;2023-06-10T00:40:08;8.05;;;7.35;;
64052;SDS011;50299;49.524;8.536;2023-06-10T00:42:35;8.52;;;7.70;;
64052;SDS011;50299;49.524;8.536;2023-06-10T00:45:02;8.27;;;7.50;;
64052;SDS011;50299;49.524;8.536;2023-06-10T00:47:29;7.90;;;7.30;;
64052;SDS011;50299;49.524;8.536;2023-06-10T00:49:56;8.52;;;7.72;;
64052;SDS011;50299;49.524;8.536;2023-06-10T00:52:25;8.77;;;7.97;;
64052;SDS011;50299;49.524;8.536;2023-06-10T00:54:54;8.45;;;7.85;;
64052;SDS011;50299;49.524;8.536;2023-06-10T00:57:21;9.23;;;8.48;;
64052;SDS011;50299;49.524;8.536;2023-06-10T00:59:48;8.40;;;7.65;;
64052;SDS011;50299;49.524;8.536;2023-06-10T01:02:15;9.38;;;8.60;;
64052;SDS011;50299;49.524;8.536;2023-06-10T01:04:42;8.48;;;7.63;;
64052;SDS011;50299;49.524;8.536;2023-06-10T01:12:28;8.30;;;7.60;;
64052;SDS011;50299;49.524;8.536;2023-06-10T01:14:59;8.35;;;7.63;;
64052;SDS011;50299;49.524;8.536;2023-06-10T01:17:27;8.95;;;8.15;;
64052;SDS011;50299;49.524;8.536;2023-06-10T01:19:55;8.23;;;7.53;;
64052;SDS011;50299;49.524;8.536;2023-06-10T01:22:27;8.07;;;7.47;;
64052;SDS011;50299;49.524;8.536;2023-06-10T01:24:55;8.57;;;7.78;;
64052;SDS011;50299;49.524;8.536;2023-06-10T01:27:28;8.63;;;7.93;;
64052;SDS011;50299;49.524;8.536;2023-06-10T01:30:09;9.15;;;8.45;;
64052;SDS011;50299;49.524;8.536;2023-06-10T01:32:45;9.45;;;8.60;;
64052;SDS011;50299;49.524;8.536;2023-06-10T01:35:16;8.43;;;7.82;;
64052;SDS011;50299;49.524;8.536;2023-06-10T01:37:45;9.23;;;8.52;;
64052;SDS011;50299;49.524;8.536;2023-06-10T01:40:13;9.43;;;8.68;;
64052;SDS011;50299;49.524;8.536;2023-06-10T01:42:40;9.60;;;8.80;;
64052;SDS011;50299;49.524;8.536;2023-06-10T01:45:06;9.18;;;8.38;;
64052;SDS011;50299;49.524;8.536;2023-06-10T01:47:34;8.57;;;7.78;;
64052;SDS011;50299;49.524;8.536;2023-06-10T01:50:00;8.38;;;7.63;;
64052;SDS011;50299;49.524;8.536;2023-06-10T01:52:27;9.13;;;8.43;;
64052;SDS011;50299;49.524;8.536;2023-06-10T01:54:54;9.15;;;8.45;;
64052;SDS011;50299;49.524;8.536;2023-06-10T01:57:20;9.80;;;9.10;;
64052;SDS011;50299;49.524;8.536;2023-06-10T01:59:47;9.52;;;8.73;;
64052;SDS011;50299;49.524;8.536;2023-06-10T02:02:13;9.35;;;8.52;;
64052;SDS011;50299;49.524;8.536;2023-06-10T02:04:40;9.57;;;8.80;;
64052;SDS011;50299;49.524;8.536;2023-06-10T02:07:06;9.70;;;8.90;;
64052;SDS011;50299;49.524;8.536;2023-06-10T02:09:32;11.07;;;10.00;;
64052;SDS011;50299;49.524;8.536;2023-06-10T02:12:02;10.55;;;9.63;;
64052;SDS011;50299;49.524;8.536;2023-06-10T02:14:29;10.95;;;10.05;;
64052;SDS011;50299;49.524;8.536;2023-06-10T02:16:57;10.52;;;9.73;;
64052;SDS011;50299;49.524;8.536;2023-06-10T02:19:23;11.02;;;10.13;;
64052;SDS011;50299;49.524;8.536;2023-06-10T02:24:19;10.60;;;9.80;;
64052;SDS011;50299;49.524;8.536;2023-06-10T02:26:46;11.30;;;10.40;;
64052;SDS011;50299;49.524;8.536;2023-06-10T02:29:14;11.95;;;10.95;;
64052;SDS011;50299;49.524;8.536;2023-06-10T02:31:40;12.27;;;11.18;;
64052;SDS011;50299;49.524;8.536;2023-06-10T02:34:07;11.73;;;10.82;;
64052;SDS011;50299;49.524;8.536;2023-06-10T02:36:33;11.80;;;10.85;;
64052;SDS011;50299;49.524;8.536;2023-06-10T02:39:02;11.80;;;10.85;;
64052;SDS011;50299;49.524;8.536;2023-06-10T02:41:30;11.93;;;11.00;;
64052;SDS011;50299;49.524;8.536;2023-06-10T02:43:57;12.57;;;11.57;;
64052;SDS011;50299;49.524;8.536;2023-06-10T02:46:23;11.68;;;10.77;;
64052;SDS011;50299;49.524;8.536;2023-06-10T02:48:50;12.65;;;11.65;;
64052;SDS011;50299;49.524;8.536;2023-06-10T02:51:18;11.75;;;10.85;;
64052;SDS011;50299;49.524;8.536;2023-06-10T02:53:44;12.48;;;11.48;;
64052;SDS011;50299;49.524;8.536;2023-06-10T02:56:11;12.77;;;11.77;;
64052;SDS011;50299;49.524;8.536;2023-06-10T02:58:38;12.40;;;11.30;;
64052;SDS011;50299;49.524;8.536;2023-06-10T03:01:05;12.70;;;11.60;;
64052;SDS011;50299;49.524;8.536;2023-06-10T03:03:32;11.50;;;10.50;;
64052;SDS011;50299;49.524;8.536;2023-06-10T03:06:00;11.77;;;10.85;;
64052;SDS011;50299;49.524;8.536;2023-06-10T03:08:26;11.65;;;10.75;;
64052;SDS011;50299;49.524;8.536;2023-06-10T03:10:53;12.95;;;11.85;;
64052;SDS011;50299;49.524;8.536;2023-06-10T03:13:19;11.85;;;10.95;;
64052;SDS011;50299;49.524;8.536;2023-06-10T03:15:47;12.23;;;11.32;;
64052;SDS011;50299;49.524;8.536;2023-06-10T03:18:17;12.40;;;11.40;;
64052;SDS011;50299;49.524;8.536;2023-06-10T03:20:43;13.63;;;12.52;;
64052;SDS011;50299;49.524;8.536;2023-06-10T03:23:10;12.88;;;11.88;;
64052;SDS011;50299;49.524;8.536;2023-06-10T03:25:40;13.57;;;12.38;;
64052;SDS011;50299;49.524;8.536;2023-06-10T03:28:12;13.65;;;12.52;;
64052;SDS011;50299;49.524;8.536;2023-06-10T03:30:38;13.23;;;12.15;;
64052;SDS011;50299;49.524;8.536;2023-06-10T03:33:05;13.93;;;12.82;;
64052;SDS011;50299;49.524;8.536;2023-06-10T03:35:32;12.77;;;11.77;;
64052;SDS011;50299;49.524;8.536;2023-06-10T03:37:58;13.23;;;12.23;;
64052;SDS011;50299;49.524;8.536;2023-06-10T03:40:25;13.82;;;12.52;;
64052;SDS011;50299;49.524;8.536;2023-06-10T03:42:51;13.55;;;12.45;;
64052;SDS011;50299;49.524;8.536;2023-06-10T03:45:18;12.98;;;11.98;;
64052;SDS011;50299;49.524;8.536;2023-06-10T03:47:44;14.10;;;12.75;;
64052;SDS011;50299;49.524;8.536;2023-06-10T03:50:11;13.43;;;12.25;;
64052;SDS011;50299;49.524;8.536;2023-06-10T03:52:38;13.73;;;12.45;;
64052;SDS011;50299;49.524;8.536;2023-06-10T03:55:06;13.48;;;12.48;;
64052;SDS011;50299;49.524;8.536;2023-06-10T03:57:33;13.10;;;12.10;;
64052;SDS011;50299;49.524;8.536;2023-06-10T04:00:00;13.60;;;12.35;;
64052;SDS011;50299;49.524;8.536;2023-06-10T04:02:35;12.75;;;11.75;;
64052;SDS011;50299;49.524;8.536;2023-06-10T04:05:01;13.18;;;12.10;;
64052;SDS011;50299;49.524;8.536;2023-06-10T04:07:28;13.55;;;12.25;;
64052;SDS011;50299;49.524;8.536;2023-06-10T04:09:59;13.23;;;12.23;;
64052;SDS011;50299;49.524;8.536;2023-06-10T04:12:26;14.13;;;13.02;;
64052;SDS011;50299;49.524;8.536;2023-06-10T04:14:52;13.82;;;12.70;;
64052;SDS011;50299;49.524;8.536;2023-06-10T04:17:19;13.45;;;12.35;;
64052;SDS011;50299;49.524;8.536;2023-06-10T04:19:46;12.88;;;11.73;;
64052;SDS011;50299;49.524;8.536;2023-06-10T04:22:13;13.50;;;12.20;;
64052;SDS011;50299;49.524;8.536;2023-06-10T04:24:39;12.75;;;11.65;;
64052;SDS011;50299;49.524;8.536;2023-06-10T04:27:06;11.63;;;10.63;;
64052;SDS011;50299;49.524;8.536;2023-06-10T04:29:32;12.77;;;11.80;;
64052;SDS011;50299;49.524;8.536;2023-06-10T04:31:59;13.02;;;12.02;;
64052;SDS011;50299;49.524;8.536;2023-06-10T04:34:30;11.95;;;10.88;;
64052;SDS011;50299;49.524;8.536;2023-06-10T04:36:57;12.27;;;11.38;;
64052;SDS011;50299;49.524;8.536;2023-06-10T04:39:24;12.45;;;11.38;;
64052;SDS011;50299;49.524;8.536;2023-06-10T04:41:50;12.25;;;11.25;;
64052;SDS011;50299;49.524;8.536;2023-06-10T04:44:17;11.68;;;10.77;;
64052;SDS011;50299;49.524;8.536;2023-06-10T04:46:44;12.82;;;11.55;;
64052;SDS011;50299;49.524;8.536;2023-06-10T04:51:42;13.68;;;11.00;;
64052;SDS011;50299;49.524;8.536;2023-06-10T04:54:09;13.93;;;11.55;;
64052;SDS011;50299;49.524;8.536;2023-06-10T04:56:35;14.40;;;11.95;;
64052;SDS011;50299;49.524;8.536;2023-06-10T04:59:02;13.00;;;10.40;;
64052;SDS011;50299;49.524;8.536;2023-06-10T05:01:29;12.52;;;11.52;;
64052;SDS011;50299;49.524;8.536;2023-06-10T05:03:55;10.95;;;9.95;;
64052;SDS011;50299;49.524;8.536;2023-06-10T05:06:22;10.85;;;9.85;;
64052;SDS011;50299;49.524;8.536;2023-06-10T05:08:49;11.25;;;10.15;;
64052;SDS011;50299;49.524;8.536;2023-06-10T05:11:27;11.38;;;10.38;;
64052;SDS011;50299;49.524;8.536;2023-06-10T05:13:53;10.85;;;9.85;;
64052;SDS011;50299;49.524;8.536;2023-06-10T05:16:20;10.23;;;9.32;;
64052;SDS011;50299;49.524;8.536;2023-06-10T05:18:47;10.77;;;9.77;;
64052;SDS011;50299;49.524;8.536;2023-06-10T05:21:14;9.60;;;8.75;;
64052;SDS011;50299;49.524;8.536;2023-06-10T05:23:41;10.73;;;9.82;;
64052;SDS011;50299;49.524;8.536;2023-06-10T05:26:08;9.82;;;8.93;;
64052;SDS011;50299;49.524;8.536;2023-06-10T05:28:35;11.50;;;9.60;;
64052;SDS011;50299;49.524;8.536;2023-06-10T05:31:01;9.75;;;9.02;;
64052;SDS011;50299;49.524;8.536;2023-06-10T05:33:28;10.13;;;9.32;;
64052;SDS011;50299;49.524;8.536;2023-06-10T05:35:54;10.07;;;9.13;;
64052;SDS011;50299;49.524;8.536;2023-06-10T05:38:21;10.68;;;9.70;;
64052;SDS011;50299;49.524;8.536;2023-06-10T05:40:47;10.98;;;9.30;;
64052;SDS011;50299;49.524;8.536;2023-06-10T05:43:14;9.55;;;8.55;;
64052;SDS011;50299;49.524;8.536;2023-06-10T05:45:43;9.05;;;8.35;;
64052;SDS011;50299;49.524;8.536;2023-06-10T05:48:09;8.57;;;7.88;;
64052;SDS011;50299;49.524;8.536;2023-06-10T05:50:36;8.93;;;8.15;;
64052;SDS011;50299;49.524;8.536;2023-06-10T05:53:05;8.60;;;7.90;;
64052;SDS011;50299;49.524;8.536;2023-06-10T05:55:33;9.13;;;7.90;;
64052;SDS011;50299;49.524;8.536;2023-06-10T05:57:59;8.80;;;8.00;;
64052;SDS011;50299;49.524;8.536;2023-06-10T06:00:26;7.95;;;7.25;;
64052;SDS011;50299;49.524;8.536;2023-06-10T06:02:55;8.02;;;7.32;;
64052;SDS011;50299;49.524;8.536;2023-06-10T06:05:23;7.35;;;6.85;;
64052;SDS011;50299;49.524;8.536;2023-06-10T06:07:52;8.90;;;8.07;;
64052;SDS011;50299;49.524;8.536;2023-06-10T06:10:19;8.30;;;7.50;;
64052;SDS011;50299;49.524;8.536;2023-06-10T06:12:51;7.60;;;6.90;;
64052;SDS011;50299;49.524;8.536;2023-06-10T06:15:18;7.10;;;6.50;;
64052;SDS011;50299;49.524;8.536;2023-06-10T06:17:44;7.47;;;6.82;;
64052;SDS011;50299;49.524;8.536;2023-06-10T06:20:11;7.07;;;6.47;;
64052;SDS011;50299;49.524;8.536;2023-06-10T06:22:38;6.65;;;6.05;;
64052;SDS011;50299;49.524;8.536;2023-06-10T06:25:04;6.07;;;5.50;;
64052;SDS011;50299;49.524;8.536;2023-06-10T06:27:31;5.80;;;5.32;;
64052;SDS011;50299;49.524;8.536;2023-06-10T06:29:58;6.50;;;5.90;;
64052;SDS011;50299;49.524;8.536;2023-06-10T06:32:25;5.53;;;5.13;;
64052;SDS011;50299;49.524;8.536;2023-06-10T06:34:53;5.75;;;5.25;;
64052;SDS011;50299;49.524;8.536;2023-06-10T06:37:24;5.75;;;5.25;;
64052;SDS011;50299;49.524;8.536;2023-06-10T06:39:51;6.03;;;5.53;;
64052;SDS011;50299;49.524;8.536;2023-06-10T06:42:19;5.70;;;5.20;;
64052;SDS011;50299;49.524;8.536;2023-06-10T06:44:46;7.90;;;5.95;;
64052;SDS011;50299;49.524;8.536;2023-06-10T06:47:13;5.95;;;5.35;;
64052;SDS011;50299;49.524;8.536;2023-06-10T06:49:40;6.65;;;5.93;;
64052;SDS011;50299;49.524;8.536;2023-06-10T06:52:06;5.60;;;5.10;;
64052;SDS011;50299;49.524;8.536;2023-06-10T06:54:33;6.03;;;5.53;;
64052;SDS011;50299;49.524;8.536;2023-06-10T06:57:00;5.22;;;4.82;;
64052;SDS011;50299;49.524;8.536;2023-06-10T06:59:26;5.60;;;5.10;;
64052;SDS011;50299;49.524;8.536;2023-06-10T07:01:53;4.85;;;4.45;;
64052;SDS011;50299;49.524;8.536;2023-06-10T07:04:20;6.45;;;5.38;;
64052;SDS011;50299;49.524;8.536;2023-06-10T07:06:52;4.95;;;4.65;;
64052;SDS011;50299;49.524;8.536;2023-06-10T07:09:18;5.07;;;4.68;;
64052;SDS011;50299;49.524;8.536;2023-06-10T07:11:44;5.45;;;5.10;;
64052;SDS011;50299;49.524;8.536;2023-06-10T07:14:11;5.07;;;4.68;;
64052;SDS011;50299;49.524;8.536;2023-06-10T07:16:37;5.45;;;4.85;;
64052;SDS011;50299;49.524;8.536;2023-06-10T07:19:04;5.10;;;4.70;;
64052;SDS011;50299;49.524;8.536;2023-06-10T07:21:31;4.68;;;4.28;;
64052;SDS011;50299;49.524;8.536;2023-06-10T07:23:59;4.90;;;4.60;;
64052;SDS011;50299;49.524;8.536;2023-06-10T07:26:26;5.32;;;4.82;;
64052;SDS011;50299;49.524;8.536;2023-06-10T07:28:52;5.63;;;5.22;;
64052;SDS011;50299;49.524;8.536;2023-06-10T07:31:19;5.05;;;4.75;;
64052;SDS011;50299;49.524;8.536;2023-06-10T07:33:46;4.70;;;4.30;;
64052;SDS011;50299;49.524;8.536;2023-06-10T07:36:13;4.95;;;4.55;;
64052;SDS011;50299;49.524;8.536;2023-06-10T07:38:39;4.50;;;4.20;;
64052;SDS011;50299;49.524;8.536;2023-06-10T07:41:09;4.43;;;4.03;;
64052;SDS011;50299;49.524;8.536;2023-06-10T07:43:37;4.75;;;4.35;;
64052;SDS011;50299;49.524;8.536;2023-06-10T07:46:04;5.25;;;4.75;;
64052;SDS011;50299;49.524;8.536;2023-06-10T07:48:33;4.20;;;3.90;;
64052;SDS011;50299;49.524;8.536;2023-06-10T07:50:59;4.72;;;4.22;;
64052;SDS011;50299;49.524;8.536;2023-06-10T07:53:26;4.40;;;4.03;;
64052;SDS011;50299;49.524;8.536;2023-06-10T07:55:53;4.25;;;3.95;;
64052;SDS011;50299;49.524;8.536;2023-06-10T07:58:19;4.30;;;4.00;;
64052;SDS011;50299;49.524;8.536;2023-06-10T08:00:49;4.28;;;3.75;;
64052;SDS011;50299;49.524;8.536;2023-06-10T08:03:16;4.30;;;4.00;;
64052;SDS011;50299;49.524;8.536;2023-06-10T08:05:42;4.70;;;4.30;;
64052;SDS011;50299;49.524;8.536;2023-06-10T08:08:09;4.70;;;4.30;;
64052;SDS011;50299;49.524;8.536;2023-06-10T08:10:36;4.75;;;4.35;;
64052;SDS011;50299;49.524;8.536;2023-06-10T08:13:02;4.97;;;4.68;;
64052;SDS011;50299;49.524;8.536;2023-06-10T08:15:29;4.88;;;4.35;;
64052;SDS011;50299;49.524;8.536;2023-06-10T08:17:55;4.32;;;4.03;;
64052;SDS011;50299;49.524;8.536;2023-06-10T08:20:22;4.72;;;4.32;;
64052;SDS011;50299;49.524;8.536;2023-06-10T08:22:49;4.45;;;4.05;;
64052;SDS011;50299;49.524;8.536;2023-06-10T08:25:16;4.32;;;3.92;;
64052;SDS011;50299;49.524;8.536;2023-06-10T08:27:42;4.97;;;4.57;;
64052;SDS011;50299;49.524;8.536;2023-06-10T08:30:09;4.95;;;4.50;;
64052;SDS011;50299;49.524;8.536;2023-06-10T08:32:42;4.47;;;4.18;;
64052;SDS011;50299;49.524;8.536;2023-06-10T08:35:09;4.85;;;4.35;;
64052;SDS011;50299;49.524;8.536;2023-06-10T08:37:36;9.20;;;4.95;;
64052;SDS011;50299;49.524;8.536;2023-06-10T08:40:03;4.97;;;4.57;;
64052;SDS011;50299;49.524;8.536;2023-06-10T08:45:07;4.90;;;4.53;;
64052;SDS011;50299;49.524;8.536;2023-06-10T08:47:38;5.40;;;4.90;;
64052;SDS011;50299;49.524;8.536;2023-06-10T08:50:08;4.85;;;4.45;;
64052;SDS011;50299;49.524;8.536;2023-06-10T08:52:40;4.78;;;4.47;;
64052;SDS011;50299;49.524;8.536;2023-06-10T08:55:14;4.72;;;4.43;;
64052;SDS011;50299;49.524;8.536;2023-06-10T08:57:46;5.28;;;4.80;;
64052;SDS011;50299;49.524;8.536;2023-06-10T09:00:14;5.40;;;5.00;;
64052;SDS011;50299;49.524;8.536;2023-06-10T09:02:42;5.07;;;4.57;;
64052;SDS011;50299;49.524;8.536;2023-06-10T09:05:13;5.75;;;5.25;;
64052;SDS011;50299;49.524;8.536;2023-06-10T09:07:40;5.03;;;4.63;;
64052;SDS011;50299;49.524;8.536;2023-06-10T09:10:06;5.60;;;5.15;;
64052;SDS011;50299;49.524;8.536;2023-06-10T09:12:37;5.50;;;5.00;;
64052;SDS011;50299;49.524;8.536;2023-06-10T09:15:04;5.30;;;4.93;;
64052;SDS011;50299;49.524;8.536;2023-06-10T09:17:32;5.97;;;5.10;;
64052;SDS011;50299;49.524;8.536;2023-06-10T09:19:59;6.05;;;5.53;;
64052;SDS011;50299;49.524;8.536;2023-06-10T09:22:28;6.45;;;5.50;;
64052;SDS011;50299;49.524;8.536;2023-06-10T09:25:08;5.35;;;4.88;;
64052;SDS011;50299;49.524;8.536;2023-06-10T09:28:12;5.97;;;5.25;;
64052;SDS011;50299;49.524;8.536;2023-06-10T09:30:31;5.97;;;5.40;;
64052;SDS011;50299;49.524;8.536;2023-06-10T09:33:00;5.90;;;5.50;;
64052;SDS011;50299;49.524;8.536;2023-06-10T09:35:29;5.70;;;5.15;;
64052;SDS011;50299;49.524;8.536;2023-06-10T09:38:00;5.40;;;5.00;;
64052;SDS011;50299;49.524;8.536;2023-06-10T09:40:28;5.57;;;5.18;;
64052;SDS011;50299;49.524;8.536;2023-06-10T09:42:55;6.10;;;5.43;;
64052;SDS011;50299;49.524;8.536;2023-06-10T09:45:32;5.97;;;5.55;;
64052;SDS011;50299;49.524;8.536;2023-06-10T09:47:59;5.18;;;4.78;;
64052;SDS011;50299;49.524;8.536;2023-06-10T09:50:27;4.95;;;4.55;;
64052;SDS011;50299;49.524;8.536;2023-06-10T09:52:54;5.32;;;4.82;;
64052;SDS011;50299;49.524;8.536;2023-06-10T09:55:20;5.18;;;4.68;;
64052;SDS011;50299;49.524;8.536;2023-06-10T09:57:49;5.35;;;4.85;;
64052;SDS011;50299;49.524;8.536;2023-06-10T10:00:16;5.32;;;4.82;;
64052;SDS011;50299;49.524;8.536;2023-06-10T10:02:51;5.07;;;4.68;;
64052;SDS011;50299;49.524;8.536;2023-06-10T10:05:21;4.75;;;4.35;;
64052;SDS011;50299;49.524;8.536;2023-06-10T10:07:49;10.13;;;5.22;;
64052;SDS011;50299;49.524;8.536;2023-06-10T10:10:17;5.18;;;4.78;;
64052;SDS011;50299;49.524;8.536;2023-06-10T10:12:46;5.25;;;4.85;;
64052;SDS011;50299;49.524;8.536;2023-06-10T10:17:52;5.22;;;4.82;;
64052;SDS011;50299;49.524;8.536;2023-06-10T10:20:24;5.47;;;4.97;;
64052;SDS011;50299;49.524;8.536;2023-06-10T10:22:54;5.68;;;5.28;;
64052;SDS011;50299;49.524;8.536;2023-06-10T10:25:29;6.18;;;5.68;;
64052;SDS011;50299;49.524;8.536;2023-06-10T10:28:10;5.57;;;5.07;;
64052;SDS011;50299;49.524;8.536;2023-06-10T10:30:50;6.30;;;5.13;;
64052;SDS011;50299;49.524;8.536;2023-06-10T10:33:20;5.75;;;5.35;;
64052;SDS011;50299;49.524;8.536;2023-06-10T10:35:53;6.05;;;5.55;;
64052;SDS011;50299;49.524;8.536;2023-06-10T10:38:21;5.55;;;5.13;;
64052;SDS011;50299;49.524;8.536;2023-06-10T10:40:47;7.03;;;5.28;;
64052;SDS011;50299;49.524;8.536;2023-06-10T10:43:15;5.20;;;4.80;;
64052;SDS011;50299;49.524;8.536;2023-06-10T10:45:44;5.45;;;5.05;;
64052;SDS011;50299;49.524;8.536;2023-06-10T10:48:12;5.15;;;4.80;;
64052;SDS011;50299;49.524;8.536;2023-06-10T10:50:41;5.20;;;4.70;;
64052;SDS011;50299;49.524;8.536;2023-06-10T10:53:07;5.03;;;4.63;;
64052;SDS011;50299;49.524;8.536;2023-06-10T10:55:34;6.65;;;4.38;;
64052;SDS011;50299;49.524;8.536;2023-06-10T10:58:06;4.97;;;4.57;;
64052;SDS011;50299;49.524;8.536;2023-06-10T11:00:41;5.13;;;4.55;;
64052;SDS011;50299;49.524;8.536;2023-06-10T11:03:15;4.32;;;4.03;;
64052;SDS011;50299;49.524;8.536;2023-06-10T11:05:47;5.55;;;4.97;;
64052;SDS011;50299;49.524;8.536;2023-06-10T11:08:45;5.13;;;4.03;;
64052;SDS011;50299;49.524;8.536;2023-06-10T11:11:17;5.03;;;4.40;;
64052;SDS011;50299;49.524;8.536;2023-06-10T11:16:31;4.97;;;4.22;;
64052;SDS011;50299;49.524;8.536;2023-06-10T11:19:08;4.78;;;4.25;;
64052;SDS011;50299;49.524;8.536;2023-06-10T11:24:25;4.20;;;3.90;;
64052;SDS011;50299;49.524;8.536;2023-06-10T11:26:52;4.68;;;4.22;;
64052;SDS011;50299;49.524;8.536;2023-06-10T11:29:19;4.10;;;3.70;;
64052;SDS011;50299;49.524;8.536;2023-06-10T11:31:50;4.72;;;4.40;;
64052;SDS011;50299;49.524;8.536;2023-06-10T11:34:22;4.18;;;3.88;;
64052;SDS011;50299;49.524;8.536;2023-06-10T11:36:51;4.10;;;3.80;;
64052;SDS011;50299;49.524;8.536;2023-06-10T11:39:19;3.70;;;3.40;;
64052;SDS011;50299;49.524;8.536;2023-06-10T11:41:46;5.68;;;4.72;;
64052;SDS011;50299;49.524;8.536;2023-06-10T11:44:14;3.95;;;3.55;;
64052;SDS011;50299;49.524;8.536;2023-06-10T11:46:45;4.10;;;3.80;;
64052;SDS011;50299;49.524;8.536;2023-06-10T11:49:14;4.07;;;3.78;;
64052;SDS011;50299;49.524;8.536;2023-06-10T11:51:41;4.20;;;3.80;;
64052;SDS011;50299;49.524;8.536;2023-06-10T11:54:15;4.15;;;3.85;;
64052;SDS011;50299;49.524;8.536;2023-06-10T11:56:42;4.32;;;3.92;;
64052;SDS011;50299;49.524;8.536;2023-06-10T11:59:08;4.47;;;4.15;;
64052;SDS011;50299;49.524;8.536;2023-06-10T12:01:36;4.18;;;3.88;;
64052;SDS011;50299;49.524;8.536;2023-06-10T12:04:09;4.43;;;4.13;;
64052;SDS011;50299;49.524;8.536;2023-06-10T12:06:48;9.18;;;4.32;;
64052;SDS011;50299;49.524;8.536;2023-06-10T12:09:19;4.20;;;3.85;;
64052;SDS011;50299;49.524;8.536;2023-06-10T12:11:59;4.47;;;3.80;;
64052;SDS011;50299;49.524;8.536;2023-06-10T12:20:09;4.20;;;3.90;;
64052;SDS011;50299;49.524;8.536;2023-06-10T12:22:51;4.55;;;4.07;;
64052;SDS011;50299;49.524;8.536;2023-06-10T12:25:17;4.47;;;4.18;;
64052;SDS011;50299;49.524;8.536;2023-06-10T12:27:55;4.88;;;4.47;;
64052;SDS011;50299;49.524;8.536;2023-06-10T12:30:24;5.18;;;4.75;;
64052;SDS011;50299;49.524;8.536;2023-06-10T12:32:55;4.70;;;4.28;;
64052;SDS011;50299;49.524;8.536;2023-06-10T12:35:23;4.60;;;4.25;;
64052;SDS011;50299;49.524;8.536;2023-06-10T12:40:39;4.72;;;4.32;;
64052;SDS011;50299;49.524;8.536;2023-06-10T12:43:07;6.78;;;4.28;;
64052;SDS011;50299;49.524;8.536;2023-06-10T12:45:34;4.15;;;3.75;;
64052;SDS011;50299;49.524;8.536;2023-06-10T12:50:35;5.80;;;4.00;;
64052;SDS011;50299;49.524;8.536;2023-06-10T12:53:05;4.57;;;4.28;;
64052;SDS011;50299;49.524;8.536;2023-06-10T12:55:32;4.40;;;4.00;;
64052;SDS011;50299;49.524;8.536;2023-06-10T12:58:00;3.97;;;3.67;;
64052;SDS011;50299;49.524;8.536;2023-06-10T13:00:27;4.45;;;4.10;;
64052;SDS011;50299;49.524;8.536;2023-06-10T13:02:56;4.30;;;3.90;;
64052;SDS011;50299;49.524;8.536;2023-06-10T13:05:23;16.98;;;4.85;;
64052;SDS011;50299;49.524;8.536;2023-06-10T13:07:50;4.03;;;3.72;;
64052;SDS011;50299;49.524;8.536;2023-06-10T13:10:16;4.35;;;3.95;;
64052;SDS011;50299;49.524;8.536;2023-06-10T13:12:43;4.55;;;4.20;;
64052;SDS011;50299;49.524;8.536;2023-06-10T13:15:14;4.32;;;4.03;;
64052;SDS011;50299;49.524;8.536;2023-06-10T13:17:41;4.50;;;3.97;;
64052;SDS011;50299;49.524;8.536;2023-06-10T13:20:09;4.30;;;4.00;;
64052;SDS011;50299;49.524;8.536;2023-06-10T13:22:36;3.92;;;3.60;;
64052;SDS011;50299;49.524;8.536;2023-06-10T13:25:03;4.57;;;4.00;;
64052;SDS011;50299;49.524;8.536;2023-06-10T13:27:31;5.63;;;4.47;;
64052;SDS011;50299;49.524;8.536;2023-06-10T13:29:57;4.60;;;4.20;;
64052;SDS011;50299;49.524;8.536;2023-06-10T13:32:24;4.30;;;4.00;;
64052;SDS011;50299;49.524;8.536;2023-06-10T13:34:51;4.20;;;3.90;;
64052;SDS011;50299;49.524;8.536;2023-06-10T13:37:17;3.70;;;3.40;;
64052;SDS011;50299;49.524;8.536;2023-06-10T13:39:44;4.20;;;3.85;;
64052;SDS011;50299;49.524;8.536;2023-06-10T13:42:13;4.25;;;3.95;;
64052;SDS011;50299;49.524;8.536;2023-06-10T13:44:40;4.35;;;3.95;;
64052;SDS011;50299;49.524;8.536;2023-06-10T13:47:06;4.97;;;4.57;;
64052;SDS011;50299;49.524;8.536;2023-06-10T13:49:33;3.92;;;3.63;;
64052;SDS011;50299;49.524;8.536;2023-06-10T13:52:00;3.72;;;3.53;;
64052;SDS011;50299;49.524;8.536;2023-06-10T13:54:26;3.85;;;3.55;;
64052;SDS011;50299;49.524;8.536;2023-06-10T13:56:53;3.90;;;3.60;;
64052;SDS011;50299;49.524;8.536;2023-06-10T13:59:20;4.45;;;4.22;;
64052;SDS011;50299;49.524;8.536;2023-06-10T14:01:47;4.13;;;3.83;;
64052;SDS011;50299;49.524;8.536;2023-06-10T14:04:13;3.65;;;3.40;;
64052;SDS011;50299;49.524;8.536;2023-06-10T14:06:40;4.22;;;3.95;;
64052;SDS011;50299;49.524;8.536;2023-06-10T14:09:07;4.00;;;3.70;;
64052;SDS011;50299;49.524;8.536;2023-06-10T14:11:33;4.20;;;3.90;;
64052;SDS011;50299;49.524;8.536;2023-06-10T14:14:00;4.20;;;3.53;;
64052;SDS011;50299;49.524;8.536;2023-06-10T14:16:27;4.55;;;4.15;;
64052;SDS011;50299;49.524;8.536;2023-06-10T14:18:53;4.30;;;3.88;;
64052;SDS011;50299;49.524;8.536;2023-06-10T14:21:20;3.97;;;3.67;;
64052;SDS011;50299;49.524;8.536;2023-06-10T14:23:52;3.78;;;3.45;;
64052;SDS011;50299;49.524;8.536;2023-06-10T14:26:19;3.85;;;3.55;;
64052;SDS011;50299;49.524;8.536;2023-06-10T14:33:42;4.07;;;3.78;;
64052;SDS011;50299;49.524;8.536;2023-06-10T14:36:10;3.83;;;3.53;;
64052;SDS011;50299;49.524;8.536;2023-06-10T14:38:36;3.92;;;3.55;;
64052;SDS011;50299;49.524;8.536;2023-06-10T14:41:03;3.75;;;3.17;;
64052;SDS011;50299;49.524;8.536;2023-06-10T14:43:30;3.50;;;3.30;;
64052;SDS011;50299;49.524;8.536;2023-06-10T14:45:56;4.15;;;3.85;;
64052;SDS011;50299;49.524;8.536;2023-06-10T14:48:23;3.65;;;3.38;;
64052;SDS011;50299;49.524;8.536;2023-06-10T14:50:49;3.90;;;3.40;;
64052;SDS011;50299;49.524;8.536;2023-06-10T14:53:17;4.10;;;3.80;;
64052;SDS011;50299;49.524;8.536;2023-06-10T14:55:44;3.53;;;3.22;;
64052;SDS011;50299;49.524;8.536;2023-06-10T14:58:13;3.40;;;3.20;;
64052;SDS011;50299;49.524;8.536;2023-06-10T15:00:41;4.03;;;3.72;;
64052;SDS011;50299;49.524;8.536;2023-06-10T15:03:08;4.05;;;3.65;;
64052;SDS011;50299;49.524;8.536;2023-06-10T15:05:34;3.92;;;3.63;;
64052;SDS011;50299;49.524;8.536;2023-06-10T15:08:03;4.32;;;3.92;;
64052;SDS011;50299;49.524;8.536;2023-06-10T15:10:32;4.32;;;3.53;;
64052;SDS011;50299;49.524;8.536;2023-06-10T15:12:58;3.95;;;3.65;;
64052;SDS011;50299;49.524;8.536;2023-06-10T15:15:25;4.00;;;3.70;;
64052;SDS011;50299;49.524;8.536;2023-06-10T15:17:52;4.05;;;3.78;;
64052;SDS011;50299;49.524;8.536;2023-06-10T15:20:19;4.07;;;3.75;;
64052;SDS011;50299;49.524;8.536;2023-06-10T15:22:46;4.20;;;3.90;;
64052;SDS011;50299;49.524;8.536;2023-06-10T15:25:12;3.63;;;3.40;;